createdAt,value
2023-05-10T09:08:45.657Z,67.00
2023-05-10T09:11:13.369Z,67.10
2023-05-10T09:13:40.302Z,67.10
2023-05-10T09:16:20.537Z,67.00
2023-05-10T09:18:50.270Z,67.00
2023-05-10T09:21:17.091Z,67.00
2023-05-10T09:23:46.791Z,67.00
2023-05-10T09:26:14.827Z,67.00
2023-05-10T09:28:51.483Z,67.00
2023-05-10T09:31:18.375Z,66.90
2023-05-10T09:33:49.111Z,66.80
2023-05-10T09:36:16.373Z,66.80
2023-05-10T09:38:50.729Z,66.80
2023-05-10T09:41:22.411Z,66.80
2023-05-10T09:43:49.608Z,66.70
2023-05-10T09:46:17.353Z,66.70
2023-05-10T09:48:46.570Z,66.60
2023-05-10T09:51:27.834Z,66.70
2023-05-10T09:54:15.642Z,66.60
2023-05-10T09:56:42.675Z,66.60
2023-05-10T09:59:12.206Z,66.50
2023-05-10T10:01:39.590Z,66.50
2023-05-10T10:04:08.321Z,66.60
2023-05-10T10:06:39.016Z,66.50
2023-05-10T10:09:07.375Z,66.50
2023-05-10T10:11:39.177Z,66.60
2023-05-10T10:14:06.506Z,66.50
2023-05-10T10:16:33.651Z,66.60
2023-05-10T10:19:00.477Z,66.50
2023-05-10T10:21:27.766Z,66.40
2023-05-10T10:23:54.318Z,66.40
2023-05-10T10:26:22.283Z,66.40
2023-05-10T10:29:01.088Z,66.40
2023-05-10T10:31:37.357Z,66.40
2023-05-10T10:34:09.816Z,66.40
2023-05-10T10:36:49.124Z,66.40
2023-05-10T10:39:15.996Z,66.30
2023-05-10T10:41:56.778Z,66.30
2023-05-10T10:44:23.554Z,66.30
2023-05-10T10:47:12.553Z,66.40
2023-05-10T10:49:42.455Z,66.50
2023-05-10T10:52:32.052Z,66.80
2023-05-10T10:55:10.156Z,66.40
2023-05-10T10:58:01.672Z,66.50
2023-05-10T11:00:32.693Z,66.50
2023-05-10T11:03:12.870Z,66.40
2023-05-10T11:05:39.479Z,66.50
2023-05-10T11:08:29.830Z,66.40
2023-05-10T11:11:10.083Z,66.30
2023-05-10T11:13:45.822Z,66.30
2023-05-10T11:16:14.842Z,66.30
2023-05-10T11:18:52.452Z,66.30
2023-05-10T11:21:19.081Z,66.30
2023-05-10T11:23:57.108Z,66.30
2023-05-10T11:26:26.399Z,66.20
2023-05-10T11:28:57.766Z,66.90
2023-05-10T11:31:27.478Z,66.20
2023-05-10T11:33:56.512Z,66.20
2023-05-10T11:36:26.996Z,66.20
2023-05-10T11:38:54.320Z,66.20
2023-05-10T11:41:22.892Z,66.30
2023-05-10T11:43:54.879Z,66.20
2023-05-10T11:46:22.422Z,66.20
2023-05-10T11:48:54.452Z,66.20
2023-05-10T11:51:24.915Z,66.20
2023-05-10T11:53:54.210Z,66.20
2023-05-10T11:56:22.666Z,66.20
2023-05-10T11:58:57.446Z,66.20
2023-05-10T12:01:25.755Z,66.20
2023-05-10T12:03:54.665Z,66.10
2023-05-10T12:06:22.360Z,66.10
2023-05-10T12:08:53.443Z,66.10
2023-05-10T12:11:21.848Z,66.10
2023-05-10T12:13:48.985Z,66.00
2023-05-10T12:16:23.558Z,66.00
2023-05-10T12:18:54.347Z,66.00
2023-05-10T12:21:22.314Z,66.00
2023-05-10T12:23:54.280Z,66.00
2023-05-10T12:26:25.473Z,66.00
2023-05-10T12:28:52.102Z,65.90
2023-05-10T12:31:19.433Z,65.90
2023-05-10T12:33:47.274Z,65.90
2023-05-10T12:36:17.634Z,65.80
2023-05-10T12:38:49.030Z,65.80
2023-05-10T12:41:19.259Z,65.80
2023-05-10T12:43:49.458Z,65.80
2023-05-10T12:46:18.529Z,65.80
2023-05-10T12:48:47.144Z,65.80
2023-05-10T12:51:16.461Z,65.80
2023-05-10T12:53:45.581Z,65.80
2023-05-10T12:56:13.331Z,65.70
2023-05-10T12:58:40.004Z,65.70
2023-05-10T13:01:06.834Z,65.80
2023-05-10T13:03:33.626Z,65.70
2023-05-10T13:06:00.471Z,65.70
2023-05-10T17:25:15.992Z,62.10
2023-05-10T17:27:42.857Z,62.90
2023-05-10T17:30:09.866Z,62.60
2023-05-10T17:32:36.832Z,62.80
2023-05-10T17:35:05.088Z,62.50
2023-05-10T17:37:33.034Z,62.50
2023-05-10T17:40:00.685Z,62.60
2023-05-10T17:42:27.914Z,60.70
2023-05-10T17:44:55.390Z,60.60
2023-05-10T17:47:22.098Z,60.20
2023-05-10T17:49:48.727Z,60.40
2023-05-10T17:52:15.438Z,60.40
2023-05-10T17:54:42.201Z,60.90
2023-05-10T17:57:08.957Z,61.10
2023-05-10T17:59:35.688Z,61.30
2023-05-10T18:02:03.320Z,61.70
2023-05-10T18:04:30.113Z,61.90
2023-05-10T18:07:01.304Z,61.90
2023-05-10T18:09:28.864Z,62.10
2023-05-10T18:11:55.639Z,62.10
2023-05-10T18:14:39.001Z,62.50
2023-05-10T18:17:07.575Z,62.50
2023-05-10T18:19:34.504Z,62.30
2023-05-10T18:22:01.714Z,62.60
2023-05-10T18:24:38.204Z,62.50
2023-05-10T18:27:10.534Z,63.10
2023-05-10T18:29:37.461Z,63.10
2023-05-10T18:32:04.532Z,63.30
2023-05-10T18:34:31.151Z,63.00
2023-05-10T18:36:57.961Z,63.20
2023-05-10T18:39:24.948Z,63.40
2023-05-10T18:41:52.066Z,63.60
2023-05-10T18:44:18.947Z,63.70
2023-05-10T18:46:46.243Z,63.60
2023-05-10T18:49:13.071Z,63.60
2023-05-10T18:51:40.050Z,63.70
2023-05-10T18:54:07.310Z,63.70
2023-05-10T18:56:33.957Z,64.60
2023-05-10T18:59:00.669Z,63.90
2023-05-10T19:01:27.320Z,63.90
2023-05-10T19:03:53.956Z,64.00
2023-05-10T19:06:20.810Z,64.00
2023-05-10T19:08:47.543Z,56.60
2023-05-10T19:11:14.169Z,56.70
2023-05-10T19:13:40.931Z,58.30
2023-05-10T19:16:12.373Z,57.70
2023-05-10T19:18:39.999Z,58.00
2023-05-10T19:21:09.533Z,57.60
2023-05-10T19:23:39.148Z,57.40
2023-05-10T19:26:06.286Z,57.90
2023-05-10T19:28:34.041Z,58.20
2023-05-10T19:31:01.793Z,58.10
2023-05-10T19:33:28.654Z,58.00
2023-05-10T19:35:56.010Z,58.40
2023-05-10T19:38:23.660Z,58.50
2023-05-10T19:40:57.341Z,58.70
2023-05-10T19:43:28.766Z,59.00
2023-05-10T19:45:58.912Z,59.20
2023-05-10T19:48:26.027Z,59.70
2023-05-10T19:50:53.687Z,60.00
2023-05-10T19:53:20.571Z,59.90
2023-05-10T19:55:47.465Z,60.20
2023-05-10T19:58:14.053Z,60.40
2023-05-10T20:00:40.704Z,61.20
2023-05-10T20:03:09.299Z,61.30
2023-05-10T20:05:36.107Z,61.70
2023-05-10T20:08:02.743Z,61.80
2023-05-10T20:10:29.492Z,62.10
2023-05-10T20:12:56.160Z,62.10
2023-05-10T20:15:23.321Z,62.30
2023-05-10T20:17:51.955Z,62.50
2023-05-10T20:20:20.074Z,62.50
2023-05-10T20:22:48.196Z,62.80
2023-05-10T20:25:16.211Z,62.80
2023-05-10T20:27:43.110Z,62.90
2023-05-10T20:30:10.466Z,63.40
2023-05-10T20:32:38.158Z,64.00
2023-05-10T20:35:05.837Z,63.90
2023-05-10T20:37:33.160Z,64.30
2023-05-10T20:39:59.835Z,64.10
2023-05-10T20:42:27.384Z,64.20
2023-05-10T20:44:54.012Z,64.10
2023-05-10T20:47:20.888Z,64.20
2023-05-10T20:49:47.504Z,64.30
2023-05-10T20:52:14.198Z,64.20
2023-05-10T20:54:40.840Z,64.20
2023-05-10T20:57:07.707Z,64.20
2023-05-10T20:59:34.440Z,64.20
2023-05-10T21:02:01.289Z,64.20
2023-05-10T21:04:28.515Z,64.20
2023-05-10T21:06:56.866Z,64.10
2023-05-10T21:09:23.496Z,64.10
2023-05-10T21:11:50.911Z,64.10
2023-05-10T21:14:17.598Z,64.10
2023-05-10T21:16:44.275Z,64.20
2023-05-10T21:19:11.850Z,64.20
2023-05-10T21:21:38.527Z,64.10
2023-05-10T21:24:05.788Z,64.20
2023-05-10T21:26:32.507Z,64.20
2023-05-10T21:28:59.377Z,64.20
2023-05-10T21:31:26.118Z,64.30
2023-05-10T21:33:52.840Z,64.30
2023-05-10T21:36:19.524Z,64.40
2023-05-10T21:38:46.651Z,64.40
2023-05-10T21:41:13.226Z,64.50
2023-05-10T21:43:39.866Z,64.50
2023-05-10T21:46:07.318Z,64.50
2023-05-10T21:48:34.064Z,64.60
2023-05-10T21:51:01.656Z,64.60
2023-05-10T21:53:28.813Z,64.60
2023-05-10T21:55:56.268Z,64.70
2023-05-10T21:58:23.597Z,64.70
2023-05-10T22:00:50.622Z,64.70
2023-05-10T22:03:17.999Z,64.70
2023-05-10T22:05:44.769Z,64.70
2023-05-10T22:08:11.368Z,64.70
2023-05-10T22:10:37.977Z,64.70
2023-05-10T22:13:04.693Z,64.70
2023-05-10T22:15:34.169Z,64.80
2023-05-10T22:18:02.405Z,64.70
2023-05-10T22:20:29.161Z,64.80
2023-05-10T22:22:55.982Z,64.80
2023-05-10T22:25:22.680Z,64.80
2023-05-10T22:27:49.368Z,65.00
2023-05-10T22:30:16.384Z,65.10
2023-05-10T22:32:43.287Z,65.30
2023-05-10T22:35:10.533Z,65.40
2023-05-10T22:37:37.177Z,65.40
2023-05-10T22:40:04.155Z,65.50
2023-05-10T22:42:30.791Z,65.60
2023-05-10T22:44:58.689Z,65.30
2023-05-10T22:47:25.652Z,65.40
2023-05-10T22:49:52.426Z,65.50
2023-05-10T22:52:18.994Z,65.30
2023-05-10T22:54:45.662Z,65.30
2023-05-10T22:57:12.690Z,65.20
2023-05-10T22:59:39.305Z,65.30
2023-05-10T23:02:06.195Z,65.30
2023-05-10T23:04:32.858Z,65.30
2023-05-10T23:06:59.439Z,65.40
2023-05-10T23:09:26.081Z,65.30
2023-05-10T23:11:52.757Z,65.20
2023-05-10T23:14:19.377Z,65.40
2023-05-10T23:16:46.162Z,65.30
2023-05-10T23:19:12.794Z,65.40
2023-05-10T23:21:39.403Z,65.40
2023-05-10T23:24:08.483Z,65.50
2023-05-10T23:26:35.237Z,65.30
2023-05-10T23:29:02.285Z,65.20
2023-05-10T23:31:29.070Z,65.20
2023-05-10T23:33:55.845Z,65.20
2023-05-10T23:36:22.461Z,65.20
2023-05-10T23:38:49.099Z,65.20
2023-05-10T23:41:15.710Z,65.30
2023-05-10T23:43:42.294Z,65.30
2023-05-10T23:46:08.901Z,65.40
2023-05-10T23:48:35.497Z,65.40
2023-05-10T23:51:02.169Z,65.30
2023-05-10T23:53:28.836Z,66.00
2023-05-10T23:55:55.442Z,65.30
2023-05-10T23:58:22.131Z,65.30
